sensor_id;sensor_type;location;lat;lon;timestamp;P1;durP1;ratioP1;P2;durP2;ratioP2
14738;SDS011;7461;52.440;13.540;2022-10-16T00:02:14;4.72;;;4.43;;
14738;SDS011;7461;52.440;13.540;2022-10-16T00:04:41;4.18;;;3.88;;
14738;SDS011;7461;52.440;13.540;2022-10-16T00:07:08;4.28;;;4.07;;
14738;SDS011;7461;52.440;13.540;2022-10-16T00:09:36;4.25;;;4.05;;
14738;SDS011;7461;52.440;13.540;2022-10-16T00:12:03;4.10;;;3.70;;
14738;SDS011;7461;52.440;13.540;2022-10-16T00:14:31;4.07;;;3.88;;
14738;SDS011;7461;52.440;13.540;2022-10-16T00:16:58;3.72;;;3.53;;
14738;SDS011;7461;52.440;13.540;2022-10-16T00:19:25;4.35;;;4.00;;
14738;SDS011;7461;52.440;13.540;2022-10-16T00:21:52;3.90;;;3.67;;
14738;SDS011;7461;52.440;13.540;2022-10-16T00:24:19;3.30;;;3.10;;
14738;SDS011;7461;52.440;13.540;2022-10-16T00:26:49;3.90;;;3.67;;
14738;SDS011;7461;52.440;13.540;2022-10-16T00:29:16;4.28;;;3.97;;
14738;SDS011;7461;52.440;13.540;2022-10-16T00:31:43;4.18;;;3.97;;
14738;SDS011;7461;52.440;13.540;2022-10-16T00:34:09;3.47;;;3.28;;
14738;SDS011;7461;52.440;13.540;2022-10-16T00:36:36;3.72;;;3.42;;
14738;SDS011;7461;52.440;13.540;2022-10-16T00:39:03;3.08;;;2.88;;
14738;SDS011;7461;52.440;13.540;2022-10-16T00:41:30;2.97;;;2.78;;
14738;SDS011;7461;52.440;13.540;2022-10-16T00:44:00;3.97;;;3.75;;
14738;SDS011;7461;52.440;13.540;2022-10-16T00:46:29;4.18;;;3.97;;
14738;SDS011;7461;52.440;13.540;2022-10-16T00:49:00;3.55;;;3.35;;
14738;SDS011;7461;52.440;13.540;2022-10-16T00:51:31;3.03;;;2.92;;
14738;SDS011;7461;52.440;13.540;2022-10-16T00:53:59;3.75;;;3.55;;
14738;SDS011;7461;52.440;13.540;2022-10-16T00:56:28;2.67;;;2.58;;
14738;SDS011;7461;52.440;13.540;2022-10-16T00:58:55;3.47;;;3.17;;
14738;SDS011;7461;52.440;13.540;2022-10-16T01:01:24;3.08;;;2.88;;
14738;SDS011;7461;52.440;13.540;2022-10-16T01:03:50;2.88;;;2.67;;
14738;SDS011;7461;52.440;13.540;2022-10-16T01:06:28;2.70;;;2.50;;
14738;SDS011;7461;52.440;13.540;2022-10-16T01:09:06;3.92;;;2.80;;
14738;SDS011;7461;52.440;13.540;2022-10-16T01:11:44;2.80;;;2.70;;
14738;SDS011;7461;52.440;13.540;2022-10-16T01:14:20;2.25;;;2.15;;
14738;SDS011;7461;52.440;13.540;2022-10-16T01:16:55;2.65;;;2.45;;
14738;SDS011;7461;52.440;13.540;2022-10-16T01:19:31;2.80;;;2.63;;
14738;SDS011;7461;52.440;13.540;2022-10-16T01:22:10;2.58;;;2.47;;
14738;SDS011;7461;52.440;13.540;2022-10-16T01:24:38;3.33;;;3.13;;
14738;SDS011;7461;52.440;13.540;2022-10-16T01:27:09;2.90;;;2.75;;
14738;SDS011;7461;52.440;13.540;2022-10-16T01:29:39;3.03;;;2.55;;
14738;SDS011;7461;52.440;13.540;2022-10-16T01:32:11;2.47;;;2.38;;
14738;SDS011;7461;52.440;13.540;2022-10-16T01:34:45;2.95;;;2.75;;
14738;SDS011;7461;52.440;13.540;2022-10-16T01:37:18;2.20;;;2.10;;
14738;SDS011;7461;52.440;13.540;2022-10-16T01:39:51;2.90;;;2.78;;
14738;SDS011;7461;52.440;13.540;2022-10-16T01:42:24;2.92;;;2.72;;
14738;SDS011;7461;52.440;13.540;2022-10-16T01:44:56;2.40;;;2.30;;
14738;SDS011;7461;52.440;13.540;2022-10-16T01:47:25;2.85;;;2.50;;
14738;SDS011;7461;52.440;13.540;2022-10-16T01:49:53;2.53;;;2.28;;
14738;SDS011;7461;52.440;13.540;2022-10-16T01:52:23;2.75;;;2.65;;
14738;SDS011;7461;52.440;13.540;2022-10-16T01:54:53;3.08;;;2.50;;
14738;SDS011;7461;52.440;13.540;2022-10-16T01:57:24;2.42;;;2.33;;
14738;SDS011;7461;52.440;13.540;2022-10-16T01:59:52;2.30;;;2.20;;
14738;SDS011;7461;52.440;13.540;2022-10-16T02:02:22;2.92;;;2.83;;
14738;SDS011;7461;52.440;13.540;2022-10-16T02:04:53;3.25;;;3.05;;
14738;SDS011;7461;52.440;13.540;2022-10-16T02:07:24;2.95;;;2.75;;
14738;SDS011;7461;52.440;13.540;2022-10-16T02:09:51;3.08;;;2.88;;
14738;SDS011;7461;52.440;13.540;2022-10-16T02:12:19;2.90;;;2.70;;
14738;SDS011;7461;52.440;13.540;2022-10-16T02:14:51;3.22;;;3.08;;
14738;SDS011;7461;52.440;13.540;2022-10-16T02:17:18;2.42;;;2.33;;
14738;SDS011;7461;52.440;13.540;2022-10-16T02:19:46;2.70;;;2.60;;
14738;SDS011;7461;52.440;13.540;2022-10-16T02:22:16;3.22;;;3.10;;
14738;SDS011;7461;52.440;13.540;2022-10-16T02:24:50;2.30;;;2.17;;
14738;SDS011;7461;52.440;13.540;2022-10-16T02:27:21;2.70;;;2.55;;
14738;SDS011;7461;52.440;13.540;2022-10-16T02:29:55;2.83;;;2.63;;
14738;SDS011;7461;52.440;13.540;2022-10-16T02:32:27;2.85;;;2.75;;
14738;SDS011;7461;52.440;13.540;2022-10-16T02:34:58;3.38;;;3.17;;
14738;SDS011;7461;52.440;13.540;2022-10-16T02:37:27;2.65;;;2.45;;
14738;SDS011;7461;52.440;13.540;2022-10-16T02:39:56;2.92;;;2.80;;
14738;SDS011;7461;52.440;13.540;2022-10-16T02:42:27;2.95;;;2.85;;
14738;SDS011;7461;52.440;13.540;2022-10-16T02:44:57;4.25;;;2.58;;
14738;SDS011;7461;52.440;13.540;2022-10-16T02:47:25;2.35;;;2.25;;
14738;SDS011;7461;52.440;13.540;2022-10-16T02:49:52;2.40;;;2.30;;
14738;SDS011;7461;52.440;13.540;2022-10-16T02:52:19;3.28;;;3.08;;
14738;SDS011;7461;52.440;13.540;2022-10-16T02:54:46;2.65;;;2.13;;
14738;SDS011;7461;52.440;13.540;2022-10-16T02:57:13;2.40;;;2.30;;
14738;SDS011;7461;52.440;13.540;2022-10-16T02:59:40;2.17;;;2.08;;
14738;SDS011;7461;52.440;13.540;2022-10-16T03:02:08;2.10;;;1.95;;
14738;SDS011;7461;52.440;13.540;2022-10-16T03:04:36;2.25;;;2.13;;
14738;SDS011;7461;52.440;13.540;2022-10-16T03:07:03;2.22;;;2.13;;
14738;SDS011;7461;52.440;13.540;2022-10-16T03:09:30;2.83;;;2.70;;
14738;SDS011;7461;52.440;13.540;2022-10-16T03:11:57;2.65;;;2.13;;
14738;SDS011;7461;52.440;13.540;2022-10-16T03:14:24;3.38;;;3.17;;
14738;SDS011;7461;52.440;13.540;2022-10-16T03:16:51;2.38;;;2.28;;
14738;SDS011;7461;52.440;13.540;2022-10-16T03:19:19;2.85;;;2.75;;
14738;SDS011;7461;52.440;13.540;2022-10-16T03:21:46;2.00;;;1.80;;
14738;SDS011;7461;52.440;13.540;2022-10-16T03:24:13;2.58;;;2.47;;
14738;SDS011;7461;52.440;13.540;2022-10-16T03:26:39;2.85;;;2.75;;
14738;SDS011;7461;52.440;13.540;2022-10-16T03:29:07;2.38;;;2.28;;
14738;SDS011;7461;52.440;13.540;2022-10-16T03:31:34;2.45;;;2.33;;
14738;SDS011;7461;52.440;13.540;2022-10-16T03:34:00;2.13;;;2.03;;
14738;SDS011;7461;52.440;13.540;2022-10-16T03:36:29;2.35;;;2.25;;
14738;SDS011;7461;52.440;13.540;2022-10-16T03:38:56;2.50;;;2.40;;
14738;SDS011;7461;52.440;13.540;2022-10-16T03:41:23;2.67;;;2.47;;
14738;SDS011;7461;52.440;13.540;2022-10-16T03:43:49;2.85;;;2.58;;
14738;SDS011;7461;52.440;13.540;2022-10-16T03:46:16;1.90;;;1.80;;
14738;SDS011;7461;52.440;13.540;2022-10-16T03:48:43;2.50;;;2.40;;
14738;SDS011;7461;52.440;13.540;2022-10-16T03:51:10;2.35;;;2.25;;
14738;SDS011;7461;52.440;13.540;2022-10-16T03:53:38;2.47;;;2.38;;
14738;SDS011;7461;52.440;13.540;2022-10-16T03:56:05;2.97;;;2.78;;
14738;SDS011;7461;52.440;13.540;2022-10-16T03:58:32;2.50;;;2.40;;
14738;SDS011;7461;52.440;13.540;2022-10-16T04:00:59;2.28;;;2.17;;
14738;SDS011;7461;52.440;13.540;2022-10-16T04:03:26;2.67;;;2.58;;
14738;SDS011;7461;52.440;13.540;2022-10-16T04:05:53;3.58;;;3.15;;
14738;SDS011;7461;52.440;13.540;2022-10-16T04:08:20;3.13;;;2.90;;
14738;SDS011;7461;52.440;13.540;2022-10-16T04:10:48;2.75;;;2.65;;
14738;SDS011;7461;52.440;13.540;2022-10-16T04:13:15;2.90;;;2.70;;
14738;SDS011;7461;52.440;13.540;2022-10-16T04:15:42;2.65;;;2.55;;
14738;SDS011;7461;52.440;13.540;2022-10-16T04:18:11;2.95;;;2.75;;
14738;SDS011;7461;52.440;13.540;2022-10-16T04:20:38;2.50;;;2.40;;
14738;SDS011;7461;52.440;13.540;2022-10-16T04:23:04;2.63;;;2.42;;
14738;SDS011;7461;52.440;13.540;2022-10-16T04:25:31;2.60;;;2.50;;
14738;SDS011;7461;52.440;13.540;2022-10-16T04:28:00;4.50;;;3.03;;
14738;SDS011;7461;52.440;13.540;2022-10-16T04:30:26;3.30;;;3.10;;
14738;SDS011;7461;52.440;13.540;2022-10-16T04:32:53;2.45;;;2.30;;
14738;SDS011;7461;52.440;13.540;2022-10-16T04:35:20;2.83;;;2.72;;
14738;SDS011;7461;52.440;13.540;2022-10-16T04:37:48;4.22;;;2.85;;
14738;SDS011;7461;52.440;13.540;2022-10-16T04:40:15;2.72;;;2.53;;
14738;SDS011;7461;52.440;13.540;2022-10-16T04:42:42;2.45;;;2.35;;
14738;SDS011;7461;52.440;13.540;2022-10-16T04:45:10;2.67;;;2.15;;
14738;SDS011;7461;52.440;13.540;2022-10-16T04:47:37;3.00;;;2.80;;
14738;SDS011;7461;52.440;13.540;2022-10-16T04:50:04;2.50;;;2.40;;
14738;SDS011;7461;52.440;13.540;2022-10-16T04:52:32;2.63;;;2.42;;
14738;SDS011;7461;52.440;13.540;2022-10-16T04:54:59;3.13;;;2.92;;
14738;SDS011;7461;52.440;13.540;2022-10-16T04:57:27;2.75;;;2.65;;
14738;SDS011;7461;52.440;13.540;2022-10-16T04:59:54;3.97;;;2.95;;
14738;SDS011;7461;52.440;13.540;2022-10-16T05:02:22;3.20;;;2.72;;
14738;SDS011;7461;52.440;13.540;2022-10-16T05:04:49;2.83;;;2.72;;
14738;SDS011;7461;52.440;13.540;2022-10-16T05:07:16;3.17;;;2.88;;
14738;SDS011;7461;52.440;13.540;2022-10-16T05:09:43;2.45;;;2.35;;
14738;SDS011;7461;52.440;13.540;2022-10-16T05:12:10;2.90;;;2.80;;
14738;SDS011;7461;52.440;13.540;2022-10-16T05:14:37;2.92;;;2.70;;
14738;SDS011;7461;52.440;13.540;2022-10-16T05:17:03;3.03;;;2.78;;
14738;SDS011;7461;52.440;13.540;2022-10-16T05:19:32;2.95;;;2.83;;
14738;SDS011;7461;52.440;13.540;2022-10-16T05:21:58;2.97;;;2.72;;
14738;SDS011;7461;52.440;13.540;2022-10-16T05:24:25;2.67;;;2.47;;
14738;SDS011;7461;52.440;13.540;2022-10-16T05:26:52;3.22;;;3.03;;
14738;SDS011;7461;52.440;13.540;2022-10-16T05:29:22;3.38;;;3.17;;
14738;SDS011;7461;52.440;13.540;2022-10-16T05:32:06;2.97;;;2.88;;
14738;SDS011;7461;52.440;13.540;2022-10-16T05:34:42;2.03;;;1.92;;
14738;SDS011;7461;52.440;13.540;2022-10-16T05:37:09;3.00;;;2.80;;
14738;SDS011;7461;52.440;13.540;2022-10-16T05:39:37;2.75;;;2.63;;
14738;SDS011;7461;52.440;13.540;2022-10-16T05:42:04;3.35;;;2.90;;
14738;SDS011;7461;52.440;13.540;2022-10-16T05:44:31;3.47;;;3.28;;
14738;SDS011;7461;52.440;13.540;2022-10-16T05:46:59;2.75;;;2.65;;
14738;SDS011;7461;52.440;13.540;2022-10-16T05:49:25;2.58;;;2.47;;
14738;SDS011;7461;52.440;13.540;2022-10-16T05:51:54;2.65;;;2.55;;
14738;SDS011;7461;52.440;13.540;2022-10-16T05:54:21;3.13;;;2.92;;
14738;SDS011;7461;52.440;13.540;2022-10-16T05:56:48;3.33;;;3.13;;
14738;SDS011;7461;52.440;13.540;2022-10-16T05:59:15;3.10;;;2.97;;
14738;SDS011;7461;52.440;13.540;2022-10-16T06:01:42;2.95;;;2.78;;
14738;SDS011;7461;52.440;13.540;2022-10-16T06:04:09;3.90;;;2.85;;
14738;SDS011;7461;52.440;13.540;2022-10-16T06:06:36;3.35;;;3.17;;
14738;SDS011;7461;52.440;13.540;2022-10-16T06:09:05;3.38;;;3.17;;
14738;SDS011;7461;52.440;13.540;2022-10-16T06:11:32;5.38;;;3.80;;
14738;SDS011;7461;52.440;13.540;2022-10-16T06:14:00;3.83;;;3.63;;
14738;SDS011;7461;52.440;13.540;2022-10-16T06:16:31;3.75;;;3.45;;
14738;SDS011;7461;52.440;13.540;2022-10-16T06:18:59;3.47;;;3.28;;
14738;SDS011;7461;52.440;13.540;2022-10-16T06:21:26;3.22;;;3.03;;
14738;SDS011;7461;52.440;13.540;2022-10-16T06:23:55;5.00;;;4.28;;
14738;SDS011;7461;52.440;13.540;2022-10-16T06:26:24;3.50;;;3.30;;
14738;SDS011;7461;52.440;13.540;2022-10-16T06:28:53;3.70;;;3.40;;
14738;SDS011;7461;52.440;13.540;2022-10-16T06:31:21;10.07;;;5.93;;
14738;SDS011;7461;52.440;13.540;2022-10-16T06:33:52;5.72;;;5.10;;
14738;SDS011;7461;52.440;13.540;2022-10-16T06:36:19;3.80;;;3.60;;
14738;SDS011;7461;52.440;13.540;2022-10-16T06:38:46;3.55;;;3.35;;
14738;SDS011;7461;52.440;13.540;2022-10-16T06:41:14;3.03;;;2.92;;
14738;SDS011;7461;52.440;13.540;2022-10-16T06:43:43;2.70;;;2.60;;
14738;SDS011;7461;52.440;13.540;2022-10-16T06:46:11;3.00;;;2.65;;
14738;SDS011;7461;52.440;13.540;2022-10-16T06:48:39;3.33;;;3.13;;
14738;SDS011;7461;52.440;13.540;2022-10-16T06:51:08;2.83;;;2.70;;
14738;SDS011;7461;52.440;13.540;2022-10-16T06:53:37;3.05;;;2.47;;
14738;SDS011;7461;52.440;13.540;2022-10-16T06:56:08;2.90;;;2.80;;
14738;SDS011;7461;52.440;13.540;2022-10-16T06:58:35;2.70;;;2.50;;
14738;SDS011;7461;52.440;13.540;2022-10-16T07:01:04;3.58;;;3.28;;
14738;SDS011;7461;52.440;13.540;2022-10-16T07:03:31;2.55;;;2.35;;
14738;SDS011;7461;52.440;13.540;2022-10-16T07:06:02;2.80;;;2.70;;
14738;SDS011;7461;52.440;13.540;2022-10-16T07:08:30;3.72;;;2.83;;
14738;SDS011;7461;52.440;13.540;2022-10-16T07:10:58;3.67;;;3.42;;
14738;SDS011;7461;52.440;13.540;2022-10-16T07:13:26;5.28;;;3.38;;
14738;SDS011;7461;52.440;13.540;2022-10-16T07:15:53;4.75;;;2.72;;
14738;SDS011;7461;52.440;13.540;2022-10-16T07:18:21;3.60;;;3.40;;
14738;SDS011;7461;52.440;13.540;2022-10-16T07:20:51;3.22;;;2.65;;
14738;SDS011;7461;52.440;13.540;2022-10-16T07:23:18;2.72;;;2.63;;
14738;SDS011;7461;52.440;13.540;2022-10-16T07:25:45;3.05;;;2.95;;
14738;SDS011;7461;52.440;13.540;2022-10-16T07:28:19;3.90;;;3.70;;
14738;SDS011;7461;52.440;13.540;2022-10-16T07:30:48;3.30;;;3.05;;
14738;SDS011;7461;52.440;13.540;2022-10-16T07:33:17;2.28;;;2.17;;
14738;SDS011;7461;52.440;13.540;2022-10-16T07:35:49;2.35;;;2.25;;
14738;SDS011;7461;52.440;13.540;2022-10-16T07:38:17;2.17;;;2.08;;
14738;SDS011;7461;52.440;13.540;2022-10-16T07:40:47;2.10;;;2.00;;
14738;SDS011;7461;52.440;13.540;2022-10-16T07:43:14;2.45;;;2.35;;
14738;SDS011;7461;52.440;13.540;2022-10-16T07:45:51;3.50;;;2.35;;
14738;SDS011;7461;52.440;13.540;2022-10-16T07:48:19;1.90;;;1.80;;
14738;SDS011;7461;52.440;13.540;2022-10-16T07:50:49;2.38;;;2.28;;
14738;SDS011;7461;52.440;13.540;2022-10-16T07:53:18;1.77;;;1.67;;
14738;SDS011;7461;52.440;13.540;2022-10-16T07:55:46;2.30;;;2.20;;
14738;SDS011;7461;52.440;13.540;2022-10-16T07:58:15;2.13;;;1.95;;
14738;SDS011;7461;52.440;13.540;2022-10-16T08:00:47;2.60;;;1.60;;
14738;SDS011;7461;52.440;13.540;2022-10-16T08:03:18;2.15;;;1.85;;
14738;SDS011;7461;52.440;13.540;2022-10-16T08:05:45;2.33;;;2.22;;
14738;SDS011;7461;52.440;13.540;2022-10-16T08:08:14;1.75;;;1.65;;
14738;SDS011;7461;52.440;13.540;2022-10-16T08:10:44;2.13;;;2.03;;
14738;SDS011;7461;52.440;13.540;2022-10-16T08:13:17;1.80;;;1.70;;
14738;SDS011;7461;52.440;13.540;2022-10-16T08:15:45;2.38;;;2.20;;
14738;SDS011;7461;52.440;13.540;2022-10-16T08:18:15;2.25;;;1.73;;
14738;SDS011;7461;52.440;13.540;2022-10-16T08:20:43;1.90;;;1.67;;
14738;SDS011;7461;52.440;13.540;2022-10-16T08:23:14;2.53;;;1.90;;
14738;SDS011;7461;52.440;13.540;2022-10-16T08:25:41;3.70;;;2.88;;
14738;SDS011;7461;52.440;13.540;2022-10-16T08:28:09;2.50;;;2.40;;
14738;SDS011;7461;52.440;13.540;2022-10-16T08:30:37;1.92;;;1.83;;
14738;SDS011;7461;52.440;13.540;2022-10-16T08:33:04;1.73;;;1.67;;
14738;SDS011;7461;52.440;13.540;2022-10-16T08:35:31;1.65;;;1.55;;
14738;SDS011;7461;52.440;13.540;2022-10-16T08:37:58;1.80;;;1.70;;
14738;SDS011;7461;52.440;13.540;2022-10-16T08:40:27;1.98;;;1.88;;
14738;SDS011;7461;52.440;13.540;2022-10-16T08:43:01;1.58;;;1.48;;
14738;SDS011;7461;52.440;13.540;2022-10-16T08:45:40;1.92;;;1.73;;
14738;SDS011;7461;52.440;13.540;2022-10-16T08:48:15;1.77;;;1.67;;
14738;SDS011;7461;52.440;13.540;2022-10-16T08:50:49;1.88;;;1.77;;
14738;SDS011;7461;52.440;13.540;2022-10-16T08:53:18;1.23;;;1.15;;
14738;SDS011;7461;52.440;13.540;2022-10-16T08:55:52;1.65;;;1.55;;
14738;SDS011;7461;52.440;13.540;2022-10-16T08:58:26;1.98;;;1.45;;
14738;SDS011;7461;52.440;13.540;2022-10-16T09:00:57;1.35;;;1.35;;
14738;SDS011;7461;52.440;13.540;2022-10-16T09:03:46;1.48;;;1.35;;
14738;SDS011;7461;52.440;13.540;2022-10-16T09:06:44;1.58;;;1.40;;
14738;SDS011;7461;52.440;13.540;2022-10-16T09:09:26;1.67;;;1.25;;
14738;SDS011;7461;52.440;13.540;2022-10-16T09:12:08;1.40;;;1.30;;
14738;SDS011;7461;52.440;13.540;2022-10-16T09:14:50;1.38;;;1.27;;
14738;SDS011;7461;52.440;13.540;2022-10-16T09:17:34;1.98;;;0.82;;
14738;SDS011;7461;52.440;13.540;2022-10-16T09:20:13;3.45;;;3.22;;
14738;SDS011;7461;52.440;13.540;2022-10-16T09:22:50;2.60;;;1.85;;
14738;SDS011;7461;52.440;13.540;2022-10-16T09:25:21;1.50;;;1.40;;
14738;SDS011;7461;52.440;13.540;2022-10-16T09:27:51;2.95;;;0.90;;
14738;SDS011;7461;52.440;13.540;2022-10-16T09:30:20;0.88;;;0.88;;
14738;SDS011;7461;52.440;13.540;2022-10-16T09:32:49;1.10;;;1.00;;
14738;SDS011;7461;52.440;13.540;2022-10-16T09:35:21;1.48;;;1.38;;
14738;SDS011;7461;52.440;13.540;2022-10-16T09:37:53;2.03;;;1.92;;
14738;SDS011;7461;52.440;13.540;2022-10-16T09:40:24;1.30;;;1.20;;
14738;SDS011;7461;52.440;13.540;2022-10-16T09:42:58;1.23;;;1.23;;
14738;SDS011;7461;52.440;13.540;2022-10-16T09:45:32;2.05;;;0.95;;
14738;SDS011;7461;52.440;13.540;2022-10-16T09:48:01;1.08;;;1.08;;
14738;SDS011;7461;52.440;13.540;2022-10-16T09:50:37;1.02;;;1.02;;
14738;SDS011;7461;52.440;13.540;2022-10-16T09:53:05;0.93;;;0.93;;
14738;SDS011;7461;52.440;13.540;2022-10-16T09:55:47;1.38;;;1.27;;
14738;SDS011;7461;52.440;13.540;2022-10-16T09:58:16;1.40;;;1.30;;
14738;SDS011;7461;52.440;13.540;2022-10-16T10:00:48;2.28;;;1.30;;
14738;SDS011;7461;52.440;13.540;2022-10-16T10:03:22;2.00;;;1.08;;
14738;SDS011;7461;52.440;13.540;2022-10-16T10:06:00;2.22;;;1.00;;
14738;SDS011;7461;52.440;13.540;2022-10-16T10:08:31;1.70;;;1.23;;
14738;SDS011;7461;52.440;13.540;2022-10-16T10:10:58;1.35;;;1.35;;
14738;SDS011;7461;52.440;13.540;2022-10-16T10:13:26;1.13;;;1.08;;
14738;SDS011;7461;52.440;13.540;2022-10-16T10:15:53;1.25;;;0.98;;
14738;SDS011;7461;52.440;13.540;2022-10-16T10:18:21;1.95;;;0.95;;
14738;SDS011;7461;52.440;13.540;2022-10-16T10:20:56;1.13;;;1.05;;
14738;SDS011;7461;52.440;13.540;2022-10-16T10:23:25;1.40;;;1.30;;
14738;SDS011;7461;52.440;13.540;2022-10-16T10:25:53;0.80;;;0.80;;
14738;SDS011;7461;52.440;13.540;2022-10-16T10:28:35;1.20;;;1.20;;
14738;SDS011;7461;52.440;13.540;2022-10-16T10:31:14;1.75;;;1.10;;
14738;SDS011;7461;52.440;13.540;2022-10-16T10:33:49;1.25;;;0.90;;
14738;SDS011;7461;52.440;13.540;2022-10-16T10:36:30;1.50;;;1.40;;
14738;SDS011;7461;52.440;13.540;2022-10-16T10:39:01;1.13;;;1.05;;
14738;SDS011;7461;52.440;13.540;2022-10-16T10:41:45;0.73;;;0.73;;
14738;SDS011;7461;52.440;13.540;2022-10-16T10:44:26;1.30;;;1.20;;
14738;SDS011;7461;52.440;13.540;2022-10-16T10:47:03;1.20;;;1.10;;
14738;SDS011;7461;52.440;13.540;2022-10-16T10:49:42;3.47;;;1.20;;
14738;SDS011;7461;52.440;13.540;2022-10-16T10:52:33;1.42;;;1.27;;
14738;SDS011;7461;52.440;13.540;2022-10-16T10:55:13;0.80;;;0.77;;
14738;SDS011;7461;52.440;13.540;2022-10-16T10:57:52;0.70;;;0.70;;
14738;SDS011;7461;52.440;13.540;2022-10-16T11:00:33;0.98;;;0.98;;
14738;SDS011;7461;52.440;13.540;2022-10-16T11:03:13;1.45;;;1.27;;
14738;SDS011;7461;52.440;13.540;2022-10-16T11:05:55;2.15;;;2.03;;
14738;SDS011;7461;52.440;13.540;2022-10-16T11:08:27;4.95;;;4.53;;
14738;SDS011;7461;52.440;13.540;2022-10-16T11:11:06;6.22;;;5.72;;
14738;SDS011;7461;52.440;13.540;2022-10-16T11:13:39;2.78;;;1.35;;
14738;SDS011;7461;52.440;13.540;2022-10-16T11:16:17;1.67;;;1.45;;
14738;SDS011;7461;52.440;13.540;2022-10-16T11:18:56;1.88;;;0.85;;
14738;SDS011;7461;52.440;13.540;2022-10-16T11:21:29;3.03;;;2.83;;
14738;SDS011;7461;52.440;13.540;2022-10-16T11:24:04;1.00;;;0.95;;
14738;SDS011;7461;52.440;13.540;2022-10-16T11:26:40;2.00;;;1.38;;
14738;SDS011;7461;52.440;13.540;2022-10-16T11:29:10;0.63;;;0.63;;
14738;SDS011;7461;52.440;13.540;2022-10-16T11:31:45;2.15;;;1.58;;
14738;SDS011;7461;52.440;13.540;2022-10-16T11:34:17;1.52;;;1.33;;
14738;SDS011;7461;52.440;13.540;2022-10-16T11:36:49;0.85;;;0.85;;
14738;SDS011;7461;52.440;13.540;2022-10-16T11:39:24;2.55;;;1.10;;
14738;SDS011;7461;52.440;13.540;2022-10-16T11:41:54;0.85;;;0.75;;
14738;SDS011;7461;52.440;13.540;2022-10-16T11:44:41;0.82;;;0.82;;
14738;SDS011;7461;52.440;13.540;2022-10-16T11:47:26;0.70;;;0.70;;
14738;SDS011;7461;52.440;13.540;2022-10-16T11:49:58;1.67;;;1.00;;
14738;SDS011;7461;52.440;13.540;2022-10-16T11:52:30;0.80;;;0.80;;
14738;SDS011;7461;52.440;13.540;2022-10-16T11:55:04;0.95;;;0.77;;
14738;SDS011;7461;52.440;13.540;2022-10-16T11:57:40;1.65;;;0.80;;
14738;SDS011;7461;52.440;13.540;2022-10-16T12:00:14;0.98;;;0.98;;
14738;SDS011;7461;52.440;13.540;2022-10-16T12:02:55;2.38;;;1.27;;
14738;SDS011;7461;52.440;13.540;2022-10-16T12:05:33;1.75;;;1.65;;
14738;SDS011;7461;52.440;13.540;2022-10-16T12:08:11;1.10;;;1.10;;
14738;SDS011;7461;52.440;13.540;2022-10-16T12:10:40;0.80;;;0.80;;
14738;SDS011;7461;52.440;13.540;2022-10-16T12:13:28;3.47;;;1.33;;
14738;SDS011;7461;52.440;13.540;2022-10-16T12:16:06;0.52;;;0.52;;
14738;SDS011;7461;52.440;13.540;2022-10-16T12:18:48;3.47;;;1.00;;
14738;SDS011;7461;52.440;13.540;2022-10-16T12:21:18;1.05;;;1.00;;
14738;SDS011;7461;52.440;13.540;2022-10-16T12:23:56;2.00;;;0.60;;
14738;SDS011;7461;52.440;13.540;2022-10-16T12:26:30;0.88;;;0.88;;
14738;SDS011;7461;52.440;13.540;2022-10-16T12:29:09;0.60;;;0.60;;
14738;SDS011;7461;52.440;13.540;2022-10-16T12:31:49;1.20;;;1.05;;
14738;SDS011;7461;52.440;13.540;2022-10-16T12:34:21;1.17;;;0.70;;
14738;SDS011;7461;52.440;13.540;2022-10-16T12:36:52;1.33;;;0.68;;
14738;SDS011;7461;52.440;13.540;2022-10-16T12:39:21;1.00;;;0.68;;
14738;SDS011;7461;52.440;13.540;2022-10-16T12:42:00;0.77;;;0.77;;
14738;SDS011;7461;52.440;13.540;2022-10-16T12:44:32;0.80;;;0.80;;
14738;SDS011;7461;52.440;13.540;2022-10-16T12:46:59;0.70;;;0.70;;
14738;SDS011;7461;52.440;13.540;2022-10-16T12:49:32;0.80;;;0.80;;
14738;SDS011;7461;52.440;13.540;2022-10-16T12:52:03;1.88;;;0.90;;
14738;SDS011;7461;52.440;13.540;2022-10-16T12:54:31;0.52;;;0.52;;
14738;SDS011;7461;52.440;13.540;2022-10-16T12:57:17;0.50;;;0.50;;
14738;SDS011;7461;52.440;13.540;2022-10-16T13:00:03;7.07;;;6.43;;
14738;SDS011;7461;52.440;13.540;2022-10-16T13:05:51;10.55;;;9.60;;
14738;SDS011;7461;52.440;13.540;2022-10-16T13:08:35;2.97;;;2.78;;
14738;SDS011;7461;52.440;13.540;2022-10-16T13:11:16;1.52;;;1.40;;
14738;SDS011;7461;52.440;13.540;2022-10-16T13:14:05;0.60;;;0.60;;
14738;SDS011;7461;52.440;13.540;2022-10-16T13:16:48;0.75;;;0.75;;
14738;SDS011;7461;52.440;13.540;2022-10-16T13:19:24;0.30;;;0.30;;
14738;SDS011;7461;52.440;13.540;2022-10-16T13:22:00;0.68;;;0.68;;
14738;SDS011;7461;52.440;13.540;2022-10-16T13:24:51;2.15;;;0.90;;
14738;SDS011;7461;52.440;13.540;2022-10-16T13:27:30;2.15;;;0.95;;
14738;SDS011;7461;52.440;13.540;2022-10-16T13:30:11;1.75;;;0.70;;
14738;SDS011;7461;52.440;13.540;2022-10-16T13:32:43;1.00;;;0.98;;
14738;SDS011;7461;52.440;13.540;2022-10-16T13:35:19;0.82;;;0.80;;
14738;SDS011;7461;52.440;13.540;2022-10-16T13:37:49;1.45;;;0.85;;
14738;SDS011;7461;52.440;13.540;2022-10-16T13:40:20;0.50;;;0.50;;
14738;SDS011;7461;52.440;13.540;2022-10-16T13:42:49;4.75;;;1.35;;
14738;SDS011;7461;52.440;13.540;2022-10-16T13:45:17;1.30;;;1.20;;
14738;SDS011;7461;52.440;13.540;2022-10-16T13:47:45;1.20;;;1.10;;
14738;SDS011;7461;52.440;13.540;2022-10-16T13:50:13;2.30;;;1.08;;
14738;SDS011;7461;52.440;13.540;2022-10-16T13:52:42;1.27;;;1.17;;
14738;SDS011;7461;52.440;13.540;2022-10-16T13:55:14;1.30;;;1.25;;
14738;SDS011;7461;52.440;13.540;2022-10-16T13:57:42;0.98;;;0.98;;
14738;SDS011;7461;52.440;13.540;2022-10-16T14:00:19;1.75;;;1.00;;
14738;SDS011;7461;52.440;13.540;2022-10-16T14:02:50;2.42;;;0.90;;
14738;SDS011;7461;52.440;13.540;2022-10-16T14:05:22;0.57;;;0.57;;
14738;SDS011;7461;52.440;13.540;2022-10-16T14:07:49;1.00;;;1.00;;
14738;SDS011;7461;52.440;13.540;2022-10-16T14:10:20;0.80;;;0.70;;
14738;SDS011;7461;52.440;13.540;2022-10-16T14:12:56;1.13;;;1.02;;
14738;SDS011;7461;52.440;13.540;2022-10-16T14:15:25;0.73;;;0.73;;
14738;SDS011;7461;52.440;13.540;2022-10-16T14:17:52;3.70;;;1.20;;
14738;SDS011;7461;52.440;13.540;2022-10-16T14:20:22;0.70;;;0.70;;
14738;SDS011;7461;52.440;13.540;2022-10-16T14:23:00;0.85;;;0.82;;
14738;SDS011;7461;52.440;13.540;2022-10-16T14:25:31;0.80;;;0.80;;
14738;SDS011;7461;52.440;13.540;2022-10-16T14:28:00;2.03;;;1.80;;
14738;SDS011;7461;52.440;13.540;2022-10-16T14:30:29;0.70;;;0.70;;
14738;SDS011;7461;52.440;13.540;2022-10-16T14:32:57;1.85;;;0.77;;
14738;SDS011;7461;52.440;13.540;2022-10-16T14:35:26;0.63;;;0.57;;
14738;SDS011;7461;52.440;13.540;2022-10-16T14:37:55;0.60;;;0.50;;
14738;SDS011;7461;52.440;13.540;2022-10-16T14:40:24;2.05;;;0.90;;
14738;SDS011;7461;52.440;13.540;2022-10-16T14:42:53;0.85;;;0.85;;
14738;SDS011;7461;52.440;13.540;2022-10-16T14:45:22;0.77;;;0.75;;
14738;SDS011;7461;52.440;13.540;2022-10-16T14:47:53;0.82;;;0.82;;
14738;SDS011;7461;52.440;13.540;2022-10-16T14:50:22;2.15;;;1.58;;
14738;SDS011;7461;52.440;13.540;2022-10-16T14:52:50;0.95;;;0.93;;
14738;SDS011;7461;52.440;13.540;2022-10-16T14:55:17;0.60;;;0.60;;
14738;SDS011;7461;52.440;13.540;2022-10-16T14:57:45;1.52;;;1.02;;
14738;SDS011;7461;52.440;13.540;2022-10-16T15:00:15;1.58;;;1.25;;
14738;SDS011;7461;52.440;13.540;2022-10-16T15:02:45;1.15;;;0.90;;
14738;SDS011;7461;52.440;13.540;2022-10-16T15:05:14;2.40;;;1.05;;
14738;SDS011;7461;52.440;13.540;2022-10-16T15:07:44;0.68;;;0.60;;
14738;SDS011;7461;52.440;13.540;2022-10-16T15:10:14;0.55;;;0.55;;
14738;SDS011;7461;52.440;13.540;2022-10-16T15:12:43;1.35;;;1.02;;
14738;SDS011;7461;52.440;13.540;2022-10-16T15:15:23;0.98;;;0.93;;